createdAt,value
2019-03-25T00:01:54.927Z,99.90
2019-03-25T00:04:23.370Z,99.90
2019-03-25T00:06:52.011Z,99.90
2019-03-25T00:09:20.776Z,99.90
2019-03-25T00:11:49.232Z,99.90
2019-03-25T00:14:18.069Z,99.90
2019-03-25T00:16:46.570Z,99.90
2019-03-25T00:19:15.019Z,99.90
2019-03-25T00:21:43.487Z,99.90
2019-03-25T00:24:11.931Z,99.90
2019-03-25T00:26:40.383Z,99.90
2019-03-25T00:29:08.854Z,99.90
2019-03-25T00:31:37.294Z,99.90
2019-03-25T00:34:05.801Z,99.90
2019-03-25T00:36:34.266Z,99.90
2019-03-25T00:39:02.714Z,99.90
2019-03-25T00:41:31.163Z,99.90
2019-03-25T00:43:59.634Z,99.90
2019-03-25T00:46:28.358Z,99.90
2019-03-25T00:48:57.148Z,99.90
2019-03-25T00:51:25.626Z,99.90
2019-03-25T00:53:54.146Z,99.90
2019-03-25T00:56:22.585Z,99.90
2019-03-25T00:58:51.142Z,99.90
2019-03-25T01:01:19.592Z,99.90
2019-03-25T01:03:48.086Z,99.90
2019-03-25T01:06:16.565Z,99.90
2019-03-25T01:08:45.089Z,99.90
2019-03-25T01:11:13.603Z,99.90
2019-03-25T01:13:42.086Z,99.90
2019-03-25T01:16:10.796Z,99.90
2019-03-25T01:18:39.234Z,99.90
2019-03-25T01:21:08.070Z,99.90
2019-03-25T01:23:36.512Z,99.90
2019-03-25T01:26:05.031Z,99.90
2019-03-25T01:28:33.507Z,99.90
2019-03-25T01:31:01.951Z,99.90
2019-03-25T01:33:30.419Z,99.90
2019-03-25T01:35:58.974Z,99.90
2019-03-25T01:38:27.413Z,99.90
2019-03-25T01:40:55.876Z,99.90
2019-03-25T01:43:24.430Z,99.90
2019-03-25T01:45:52.943Z,99.90
2019-03-25T01:48:21.727Z,99.90
2019-03-25T01:50:50.225Z,99.90
2019-03-25T01:53:18.664Z,99.90
2019-03-25T01:55:47.401Z,99.90
2019-03-25T01:58:15.879Z,99.90
2019-03-25T02:00:44.326Z,99.90
2019-03-25T02:03:12.783Z,99.90
2019-03-25T02:05:41.271Z,99.90
2019-03-25T02:08:09.718Z,99.90
2019-03-25T02:10:38.164Z,99.90
2019-03-25T02:13:06.711Z,99.90
2019-03-25T02:15:35.221Z,99.90
2019-03-25T02:18:03.726Z,99.90
2019-03-25T02:20:32.374Z,99.90
2019-03-25T02:23:00.976Z,99.90
2019-03-25T02:25:29.631Z,99.90
2019-03-25T02:27:58.116Z,99.90
2019-03-25T02:30:26.608Z,99.90
2019-03-25T02:32:55.056Z,99.90
2019-03-25T02:35:23.534Z,99.90
2019-03-25T02:37:52.063Z,99.90
2019-03-25T02:40:20.535Z,99.90
2019-03-25T02:42:48.977Z,99.90
2019-03-25T02:45:17.539Z,99.90
2019-03-25T02:47:46.025Z,99.90
2019-03-25T02:50:14.539Z,99.90
2019-03-25T02:52:42.976Z,99.90
2019-03-25T02:55:11.524Z,99.90
2019-03-25T02:57:39.963Z,99.90
2019-03-25T03:00:10.845Z,99.90
2019-03-25T03:02:39.312Z,99.90
2019-03-25T03:05:08.106Z,99.90
2019-03-25T03:07:36.839Z,99.90
2019-03-25T03:10:07.338Z,99.90
2019-03-25T03:12:36.148Z,99.90
2019-03-25T03:15:06.798Z,99.90
2019-03-25T03:17:35.268Z,99.90
2019-03-25T03:20:05.242Z,99.90
2019-03-25T03:22:33.686Z,99.90
2019-03-25T03:25:02.169Z,99.90
2019-03-25T03:27:30.610Z,99.90
2019-03-25T03:29:59.044Z,99.90
2019-03-25T03:32:27.519Z,99.90
2019-03-25T03:34:55.964Z,99.90
2019-03-25T03:37:24.451Z,99.90
2019-03-25T03:39:52.963Z,99.90
2019-03-25T03:42:21.408Z,99.90
2019-03-25T03:44:49.878Z,99.90
2019-03-25T03:47:18.576Z,99.90
2019-03-25T03:49:47.020Z,99.90
2019-03-25T03:52:15.718Z,99.90
2019-03-25T03:54:44.694Z,99.90
2019-03-25T03:57:14.577Z,99.90
2019-03-25T03:59:43.899Z,99.90
2019-03-25T04:02:12.679Z,99.90
2019-03-25T04:04:41.187Z,99.90
2019-03-25T04:07:09.667Z,99.90
2019-03-25T04:09:38.179Z,99.90
2019-03-25T04:12:06.683Z,99.90
2019-03-25T04:14:35.245Z,99.90
2019-03-25T04:17:03.681Z,99.90
2019-03-25T04:19:32.118Z,99.90
2019-03-25T04:22:00.578Z,99.90
2019-03-25T04:24:29.023Z,99.90
2019-03-25T04:26:57.472Z,99.90
2019-03-25T04:29:26.025Z,99.90
2019-03-25T04:31:54.468Z,99.90
2019-03-25T04:34:22.919Z,99.90
2019-03-25T04:36:51.391Z,99.90
2019-03-25T04:39:19.864Z,99.90
2019-03-25T04:41:48.311Z,99.90
2019-03-25T04:44:16.810Z,99.90
2019-03-25T04:46:45.274Z,99.90
2019-03-25T04:49:13.709Z,99.90
2019-03-25T04:51:44.780Z,99.90
2019-03-25T04:54:12.744Z,99.90
2019-03-25T04:56:41.178Z,99.90
2019-03-25T04:59:09.659Z,99.90
2019-03-25T05:01:38.102Z,99.90
2019-03-25T05:04:06.522Z,99.90
2019-03-25T05:06:34.978Z,99.90
2019-03-25T05:09:05.254Z,99.90
2019-03-25T05:11:33.678Z,99.90
2019-03-25T05:14:02.175Z,99.90
2019-03-25T05:16:30.619Z,99.90
2019-03-25T05:18:59.070Z,99.90
2019-03-25T05:21:27.542Z,99.90
2019-03-25T05:23:55.973Z,99.90
2019-03-25T05:26:24.423Z,99.90
2019-03-25T05:28:53.189Z,99.90
2019-03-25T05:31:21.618Z,99.90
2019-03-25T05:33:50.390Z,99.90
2019-03-25T05:36:18.857Z,99.90
2019-03-25T05:38:47.297Z,99.90
2019-03-25T05:41:15.736Z,99.90
2019-03-25T05:43:44.201Z,99.90
2019-03-25T05:46:12.638Z,99.90
2019-03-25T05:48:41.070Z,99.90
2019-03-25T05:51:09.543Z,99.90
2019-03-25T05:53:37.984Z,99.90
2019-03-25T05:56:06.423Z,99.90
2019-03-25T05:58:34.889Z,99.90
2019-03-25T06:01:03.501Z,99.90
2019-03-25T06:03:31.926Z,99.90
2019-03-25T06:06:00.470Z,99.90
2019-03-25T06:08:28.911Z,99.90
2019-03-25T06:10:57.351Z,99.90
2019-03-25T06:13:25.807Z,99.90
2019-03-25T06:15:54.522Z,99.90
2019-03-25T06:18:22.958Z,99.90
2019-03-25T06:20:51.431Z,99.90
2019-03-25T06:23:19.868Z,99.90
2019-03-25T06:25:48.301Z,99.90
2019-03-25T06:28:16.771Z,99.90
2019-03-25T06:30:45.211Z,99.90
2019-03-25T06:33:13.653Z,99.90
2019-03-25T06:35:42.116Z,99.90
2019-03-25T06:38:10.758Z,99.90
2019-03-25T06:40:39.471Z,99.90
2019-03-25T06:43:08.009Z,99.90
2019-03-25T06:45:36.454Z,99.90
2019-03-25T06:48:04.890Z,99.90
2019-03-25T06:50:33.379Z,99.90
2019-03-25T06:53:01.818Z,99.90
2019-03-25T06:55:30.255Z,99.90
2019-03-25T06:57:58.907Z,99.90
2019-03-25T07:00:27.422Z,99.90
2019-03-25T07:02:55.862Z,99.90
2019-03-25T07:05:24.318Z,99.90
2019-03-25T07:07:52.757Z,99.90
2019-03-25T07:10:35.148Z,99.90
2019-03-25T07:13:04.823Z,99.90
2019-03-25T07:15:33.922Z,99.90
2019-03-25T07:18:02.744Z,99.90
2019-03-25T07:20:31.515Z,99.90
2019-03-25T07:23:00.018Z,99.90
2019-03-25T07:25:28.507Z,99.90
2019-03-25T07:27:56.942Z,99.90
2019-03-25T07:30:25.754Z,99.90
2019-03-25T07:32:54.550Z,99.90
2019-03-25T07:35:22.986Z,99.90
2019-03-25T07:37:51.415Z,99.90
2019-03-25T07:40:19.890Z,99.90
2019-03-25T07:42:48.343Z,99.90
2019-03-25T07:45:16.847Z,99.90
2019-03-25T07:47:45.341Z,99.90
2019-03-25T07:50:14.706Z,99.90
2019-03-25T07:52:43.155Z,99.90
2019-03-25T07:55:11.839Z,99.90
2019-03-25T07:57:48.312Z,99.90
2019-03-25T08:00:14.171Z,99.90
2019-03-25T08:02:42.881Z,99.90
2019-03-25T08:05:11.648Z,99.90
2019-03-25T08:07:40.231Z,99.90
2019-03-25T08:10:10.620Z,99.90
2019-03-25T08:12:39.138Z,99.90
2019-03-25T08:15:08.382Z,99.90
2019-03-25T08:17:36.852Z,99.90
2019-03-25T08:20:07.934Z,99.90
2019-03-25T08:22:36.366Z,99.90
2019-03-25T08:25:06.567Z,99.90
2019-03-25T08:27:35.017Z,99.90
2019-03-25T08:30:05.490Z,99.90
2019-03-25T08:32:33.954Z,99.90
2019-03-25T08:35:02.396Z,99.90
2019-03-25T08:37:31.130Z,99.90
2019-03-25T08:39:59.598Z,99.90
2019-03-25T08:42:28.195Z,99.90
2019-03-25T08:44:56.995Z,99.90
2019-03-25T08:47:25.465Z,99.90
2019-03-25T08:49:54.931Z,99.90
2019-03-25T08:52:23.538Z,99.90
2019-03-25T08:54:52.004Z,99.90
2019-03-25T08:57:20.515Z,99.90
2019-03-25T08:59:48.946Z,99.90
2019-03-25T09:02:17.503Z,99.90
2019-03-25T09:04:46.015Z,99.90
2019-03-25T09:07:14.908Z,99.90
2019-03-25T09:09:43.539Z,99.90
2019-03-25T09:12:12.287Z,99.90
2019-03-25T09:14:41.095Z,99.90
2019-03-25T09:17:09.557Z,99.90
2019-03-25T09:19:37.992Z,99.90
2019-03-25T09:22:06.965Z,99.90
2019-03-25T09:24:35.440Z,96.50
2019-03-25T09:27:04.041Z,91.70
2019-03-25T09:29:32.567Z,92.60
2019-03-25T09:32:01.035Z,92.70
2019-03-25T09:34:29.466Z,91.40
2019-03-25T09:36:57.900Z,89.40
2019-03-25T09:39:26.388Z,90.00
2019-03-25T09:41:55.227Z,87.70
2019-03-25T09:44:23.731Z,84.40
2019-03-25T09:46:52.201Z,81.10
2019-03-25T09:49:20.703Z,80.40
2019-03-25T09:51:49.138Z,81.10
2019-03-25T09:54:17.606Z,80.70
2019-03-25T09:56:46.112Z,79.30
2019-03-25T09:59:14.542Z,76.70
2019-03-25T10:01:43.003Z,79.30
2019-03-25T10:04:11.504Z,77.20
2019-03-25T10:06:40.104Z,77.80
2019-03-25T10:09:10.554Z,78.90
2019-03-25T10:11:39.001Z,77.70
2019-03-25T10:14:07.631Z,80.20
2019-03-25T10:16:36.486Z,78.60
2019-03-25T10:19:05.071Z,79.30
2019-03-25T10:21:33.502Z,78.00
2019-03-25T10:24:02.421Z,73.80
2019-03-25T10:26:31.655Z,75.40
2019-03-25T10:29:00.093Z,76.50
2019-03-25T10:31:28.623Z,74.60
2019-03-25T10:33:57.415Z,77.30
2019-03-25T10:36:26.218Z,76.40
2019-03-25T10:38:54.846Z,74.80
2019-03-25T10:41:23.582Z,77.70
2019-03-25T10:43:52.013Z,77.90
2019-03-25T10:46:20.481Z,77.20
2019-03-25T10:48:48.979Z,77.20
2019-03-25T10:51:17.432Z,77.00
2019-03-25T10:53:46.041Z,79.80
2019-03-25T10:56:14.475Z,83.70
2019-03-25T10:58:43.297Z,84.30
2019-03-25T11:01:11.910Z,86.50
2019-03-25T11:03:40.401Z,87.30
2019-03-25T11:06:08.901Z,85.70
2019-03-25T11:08:38.219Z,86.40
2019-03-25T11:11:06.958Z,84.00
2019-03-25T11:13:35.405Z,84.30
2019-03-25T11:16:03.864Z,84.20
2019-03-25T11:18:32.322Z,86.90
2019-03-25T11:21:00.770Z,85.10
2019-03-25T11:23:29.313Z,83.60
2019-03-25T11:25:58.064Z,86.50
2019-03-25T11:28:26.504Z,84.00
2019-03-25T11:30:56.982Z,85.80
2019-03-25T11:33:25.756Z,81.00
2019-03-25T11:35:54.333Z,82.50
2019-03-25T11:38:22.958Z,78.70
2019-03-25T11:40:51.466Z,77.10
2019-03-25T11:43:19.902Z,77.10
2019-03-25T11:45:48.888Z,78.10
2019-03-25T11:48:17.322Z,76.10
2019-03-25T11:50:46.189Z,72.30
2019-03-25T11:53:14.793Z,74.10
2019-03-25T11:55:43.219Z,73.20
2019-03-25T11:58:11.654Z,68.50
2019-03-25T12:00:40.133Z,68.50
2019-03-25T12:03:08.559Z,67.00
2019-03-25T12:05:36.993Z,68.70
2019-03-25T12:08:05.731Z,72.20
2019-03-25T12:10:34.330Z,75.30
2019-03-25T12:13:02.780Z,72.90
2019-03-25T12:15:31.254Z,75.20
2019-03-25T12:17:59.690Z,72.80
2019-03-25T12:20:28.130Z,75.00
2019-03-25T12:22:56.728Z,70.70
2019-03-25T12:25:25.153Z,68.70
2019-03-25T12:27:53.600Z,66.70
2019-03-25T12:30:22.174Z,66.00
2019-03-25T12:32:50.773Z,69.00
2019-03-25T12:35:19.273Z,68.60
2019-03-25T12:37:47.754Z,68.40
2019-03-25T12:40:16.461Z,67.00
2019-03-25T12:42:44.898Z,71.20
2019-03-25T12:45:14.163Z,71.10
2019-03-25T12:47:42.598Z,72.00
2019-03-25T12:50:11.554Z,70.50
2019-03-25T12:52:40.020Z,70.90
2019-03-25T12:55:08.812Z,72.60
2019-03-25T12:57:37.294Z,70.50
2019-03-25T13:00:07.170Z,70.80
2019-03-25T13:02:35.593Z,71.00
2019-03-25T13:05:05.722Z,68.70
2019-03-25T13:07:34.178Z,68.50
2019-03-25T13:10:02.787Z,66.80
2019-03-25T13:12:31.210Z,65.50
2019-03-25T13:14:59.665Z,64.60
2019-03-25T13:17:28.399Z,61.80
2019-03-25T13:19:56.826Z,64.20
2019-03-25T13:22:25.513Z,62.90
2019-03-25T13:24:54.255Z,65.40
2019-03-25T13:27:22.687Z,68.10
2019-03-25T13:29:52.698Z,68.10
2019-03-25T13:32:21.297Z,72.50
2019-03-25T13:34:49.735Z,67.40
2019-03-25T13:37:18.208Z,65.20
2019-03-25T13:39:46.913Z,67.50
2019-03-25T13:42:15.342Z,69.20
2019-03-25T13:44:44.086Z,66.50
2019-03-25T13:47:12.887Z,65.60
2019-03-25T13:49:41.313Z,67.60
2019-03-25T13:52:09.800Z,67.50
2019-03-25T13:54:38.243Z,68.10
2019-03-25T13:57:06.670Z,68.60
2019-03-25T13:59:35.122Z,69.50
2019-03-25T14:02:03.628Z,67.40
2019-03-25T14:04:32.282Z,67.90
2019-03-25T14:07:01.072Z,66.50
2019-03-25T14:09:29.509Z,66.50
2019-03-25T14:11:57.953Z,64.00
2019-03-25T14:14:26.734Z,62.00
2019-03-25T14:16:55.162Z,60.60
2019-03-25T14:19:23.619Z,59.50
2019-03-25T14:21:52.338Z,57.90
2019-03-25T14:24:20.778Z,58.80
2019-03-25T14:26:49.211Z,55.30
2019-03-25T14:29:17.693Z,53.60
2019-03-25T14:31:46.434Z,54.00
2019-03-25T14:34:16.583Z,54.40
2019-03-25T14:36:45.205Z,54.90
2019-03-25T14:39:13.741Z,54.70
2019-03-25T14:41:42.629Z,52.50
2019-03-25T14:44:11.523Z,52.40
2019-03-25T14:46:40.315Z,51.00
2019-03-25T14:49:09.892Z,52.30
2019-03-25T14:51:38.923Z,52.00
2019-03-25T14:54:07.353Z,50.80
2019-03-25T14:56:35.785Z,51.00
2019-03-25T14:59:04.256Z,53.40
2019-03-25T15:01:32.691Z,54.80
2019-03-25T15:04:01.202Z,57.40
2019-03-25T15:06:30.418Z,72.50
2019-03-25T15:08:58.847Z,86.70
2019-03-25T15:11:27.650Z,92.30
2019-03-25T15:13:56.757Z,91.50
2019-03-25T15:16:25.258Z,87.90
2019-03-25T15:18:53.698Z,91.70
2019-03-25T15:21:22.502Z,89.50
2019-03-25T15:23:50.937Z,84.00
2019-03-25T15:26:19.374Z,84.80
2019-03-25T15:28:47.834Z,83.10
2019-03-25T15:31:16.338Z,82.70
2019-03-25T15:33:44.766Z,78.60
2019-03-25T15:36:13.223Z,88.80
2019-03-25T15:38:41.992Z,94.20
2019-03-25T15:41:10.429Z,98.20
2019-03-25T15:43:39.015Z,99.90
2019-03-25T15:46:07.577Z,99.90
2019-03-25T15:48:36.022Z,99.90
2019-03-25T15:51:04.827Z,99.90
2019-03-25T15:53:33.250Z,99.90
2019-03-25T15:56:01.683Z,99.90
2019-03-25T15:58:30.488Z,99.90
2019-03-25T16:00:58.986Z,99.90
2019-03-25T16:03:27.419Z,99.90
2019-03-25T16:05:56.858Z,99.90
2019-03-25T16:08:25.284Z,99.90
2019-03-25T16:10:53.723Z,99.90
2019-03-25T16:13:22.381Z,99.90
2019-03-25T16:15:51.145Z,99.90
2019-03-25T16:18:36.150Z,99.90
2019-03-25T16:21:05.010Z,99.90
2019-03-25T16:23:33.446Z,99.90
2019-03-25T16:26:01.900Z,99.90
2019-03-25T16:30:59.339Z,99.90
2019-03-25T16:33:27.979Z,99.90
2019-03-25T16:35:56.401Z,99.90
2019-03-25T16:38:25.205Z,99.90
2019-03-25T16:40:53.694Z,99.90
2019-03-25T16:43:22.136Z,99.90
2019-03-25T16:45:50.687Z,99.90
2019-03-25T16:48:19.160Z,99.90
2019-03-25T16:50:47.659Z,99.90
2019-03-25T16:53:16.136Z,99.90
2019-03-25T16:55:44.593Z,99.90
2019-03-25T16:58:13.031Z,99.90
2019-03-25T17:00:41.778Z,99.90
2019-03-25T17:03:10.566Z,99.90
2019-03-25T17:05:39.358Z,99.90
2019-03-25T17:08:07.966Z,99.90
2019-03-25T17:10:36.539Z,99.90
2019-03-25T17:13:04.977Z,99.90
2019-03-25T17:15:33.425Z,99.90
2019-03-25T17:18:02.076Z,99.90
2019-03-25T17:20:30.586Z,99.90
2019-03-25T17:22:59.092Z,99.90
2019-03-25T17:25:28.822Z,99.90
2019-03-25T17:27:57.504Z,99.90
2019-03-25T17:30:26.066Z,99.90
2019-03-25T17:32:56.558Z,99.90
2019-03-25T17:35:25.086Z,99.90
2019-03-25T17:37:53.515Z,99.90
2019-03-25T17:40:22.058Z,99.90
2019-03-25T17:42:50.619Z,99.90
2019-03-25T17:45:19.487Z,99.90
2019-03-25T17:47:48.202Z,99.90
2019-03-25T17:50:16.963Z,99.90
2019-03-25T17:52:45.395Z,99.90
2019-03-25T17:55:14.136Z,99.90
2019-03-25T17:57:42.571Z,99.90
2019-03-25T18:00:12.613Z,99.90
2019-03-25T18:02:41.076Z,99.90
2019-03-25T18:05:09.744Z,99.90
2019-03-25T18:07:38.172Z,99.90
2019-03-25T18:10:08.191Z,99.90
2019-03-25T18:12:39.105Z,99.90
2019-03-25T18:15:09.743Z,99.90
2019-03-25T18:17:38.914Z,99.90
2019-03-25T18:20:18.166Z,99.90
2019-03-25T18:22:39.899Z,99.90
2019-03-25T18:25:09.046Z,99.90
2019-03-25T18:27:37.480Z,99.90
2019-03-25T18:30:07.405Z,99.90
2019-03-25T18:32:35.980Z,99.90
2019-03-25T18:35:05.828Z,99.90
2019-03-25T18:37:34.255Z,99.90
2019-03-25T18:40:02.906Z,99.90
2019-03-25T18:42:31.664Z,99.90
2019-03-25T18:45:00.161Z,99.90
2019-03-25T18:47:28.946Z,99.90
2019-03-25T18:49:57.571Z,99.90
2019-03-25T18:52:26.062Z,99.90
2019-03-25T18:54:54.513Z,99.90
2019-03-25T18:57:22.956Z,99.90
2019-03-25T18:59:51.502Z,99.90
2019-03-25T19:02:19.998Z,99.90
2019-03-25T19:04:48.460Z,99.90
2019-03-25T19:07:17.131Z,99.90
2019-03-25T19:09:46.587Z,99.90
2019-03-25T19:12:15.496Z,99.90
2019-03-25T19:14:44.074Z,99.90
2019-03-25T19:17:12.869Z,99.90
2019-03-25T19:19:41.402Z,99.90
2019-03-25T19:22:12.467Z,99.90
2019-03-25T19:24:40.179Z,99.90
2019-03-25T19:27:09.042Z,99.90
2019-03-25T19:29:37.825Z,99.90
2019-03-25T19:32:07.223Z,99.90
2019-03-25T19:34:36.745Z,99.90
2019-03-25T19:37:05.285Z,99.90
2019-03-25T19:39:34.133Z,99.90
2019-03-25T19:42:02.718Z,99.90
2019-03-25T19:44:31.294Z,99.90
2019-03-25T19:47:00.179Z,99.90
2019-03-25T19:49:28.603Z,99.90
2019-03-25T19:51:57.107Z,99.90
2019-03-25T19:54:29.202Z,99.90
2019-03-25T19:56:57.712Z,99.90
2019-03-25T19:59:26.168Z,99.90
2019-03-25T20:01:54.705Z,99.90
2019-03-25T20:04:23.303Z,99.90
2019-03-25T20:06:51.836Z,99.90
2019-03-25T20:09:20.489Z,99.90
2019-03-25T20:11:49.033Z,99.90
2019-03-25T20:14:17.516Z,99.90
2019-03-25T20:16:46.297Z,99.90
2019-03-25T20:19:14.821Z,99.90
2019-03-25T20:21:43.258Z,99.90
2019-03-25T20:24:11.854Z,99.90
2019-03-25T20:26:40.359Z,99.90
2019-03-25T20:29:08.835Z,99.90
2019-03-25T20:31:37.380Z,99.90
2019-03-25T20:34:11.268Z,99.90
2019-03-25T20:36:36.051Z,99.90
2019-03-25T20:39:07.606Z,99.90
2019-03-25T20:41:36.101Z,99.90
2019-03-25T20:44:05.452Z,99.90
2019-03-25T20:46:34.040Z,99.90
2019-03-25T20:49:02.526Z,99.90
2019-03-25T20:51:30.990Z,99.90
2019-03-25T20:53:59.569Z,99.90
2019-03-25T20:56:28.062Z,99.90
2019-03-25T20:58:56.566Z,99.90
2019-03-25T21:01:25.490Z,99.90
2019-03-25T21:03:54.038Z,99.90
2019-03-25T21:06:22.499Z,99.90
2019-03-25T21:08:51.046Z,99.90
2019-03-25T21:11:19.930Z,99.90
2019-03-25T21:13:48.529Z,99.90
2019-03-25T21:16:17.084Z,99.90
2019-03-25T21:18:46.027Z,99.90
2019-03-25T21:21:14.573Z,99.90
2019-03-25T21:23:43.411Z,99.90
2019-03-25T21:26:12.256Z,99.90
2019-03-25T21:28:40.805Z,99.90
2019-03-25T21:31:09.360Z,99.90
2019-03-25T21:33:37.862Z,99.90
2019-03-25T21:36:06.609Z,99.90
2019-03-25T21:38:35.186Z,99.90
2019-03-25T21:41:03.697Z,99.90
2019-03-25T21:43:32.206Z,99.90
2019-03-25T21:46:00.755Z,99.90
2019-03-25T21:48:29.332Z,99.90
2019-03-25T21:50:57.907Z,99.90
2019-03-25T21:53:26.408Z,99.90
2019-03-25T21:55:54.970Z,99.90
2019-03-25T21:58:23.437Z,99.90
2019-03-25T22:00:52.189Z,99.90
2019-03-25T22:03:20.625Z,99.90
2019-03-25T22:05:49.406Z,99.90
2019-03-25T22:08:20.246Z,99.90
2019-03-25T22:10:48.734Z,99.90
2019-03-25T22:13:17.469Z,99.90
2019-03-25T22:15:45.939Z,99.90
2019-03-25T22:18:14.593Z,99.90
2019-03-25T22:20:43.157Z,99.90
2019-03-25T22:23:11.718Z,99.90
2019-03-25T22:25:40.414Z,99.90
2019-03-25T22:28:08.841Z,99.90
2019-03-25T22:30:37.362Z,99.90
2019-03-25T22:33:05.850Z,99.90
2019-03-25T22:35:34.282Z,99.90
2019-03-25T22:38:02.971Z,99.90
2019-03-25T22:40:31.473Z,99.90
2019-03-25T22:42:59.893Z,99.90
2019-03-25T22:45:29.481Z,99.90
2019-03-25T22:47:58.090Z,99.90
2019-03-25T22:50:28.663Z,99.90
2019-03-25T22:52:57.649Z,99.90
2019-03-25T22:55:26.729Z,99.90
2019-03-25T22:57:55.235Z,99.90
2019-03-25T23:00:25.674Z,99.90
2019-03-25T23:02:54.265Z,99.90
2019-03-25T23:05:22.766Z,99.90
2019-03-25T23:07:51.647Z,99.90
2019-03-25T23:10:20.086Z,99.90
2019-03-25T23:12:48.597Z,99.90
2019-03-25T23:15:17.057Z,99.90
2019-03-25T23:17:45.483Z,99.90
2019-03-25T23:20:13.987Z,99.90
2019-03-25T23:22:42.432Z,99.90
2019-03-25T23:25:11.031Z,99.90
2019-03-25T23:27:39.519Z,99.90
2019-03-25T23:30:08.351Z,99.90
2019-03-25T23:32:36.835Z,99.90
2019-03-25T23:35:06.652Z,99.90
2019-03-25T23:37:35.118Z,99.90
2019-03-25T23:40:06.990Z,99.90
2019-03-25T23:42:35.426Z,99.90
2019-03-25T23:45:05.532Z,99.90
2019-03-25T23:47:33.963Z,99.90
2019-03-25T23:50:02.873Z,99.90
2019-03-25T23:52:31.322Z,99.90
2019-03-25T23:54:59.758Z,99.90
2019-03-25T23:57:28.188Z,99.90
2019-03-25T23:59:56.650Z,99.90
